Disclaimer

Please do not use the information listed here in-flight or in-navigation, as they are not provided to us by the airports but are provided by volunteers, so they might be outdated.

Search


Regions


Airport information page

Radio informations:
GLOSTER TWR - 122.9 MHz
FIRE - 121.6 MHz
Automatic Terminal Information Service (ATIS) - 127.475 MHz
GLOSTER APP - 128.55 MHz

Airport informations:
Latitude: 51° 53' 39.00" N
Longitude: 002° 10' 02.00" W
Elevation: 101 feet - 31 meters
Operating hours: Remarks
Operating agency: Civil government, landing fees and diplomatic clearance may be required
Timezone: UTC 0(+1DT) - Last Sunday in March to last Sunday in October
Fuel: Jet A1, without icing nhibitor.

100/130 MIL Spec, low lead, aviation gasoline (BLUE)

Runway information:
04/22 - 3218 x 112 feet< - >981 x 34 meters
09/27 - 4656 x 112 feet< - >1419 x 34 meters
18/36 - 2625 x 59 feet< - >800 x 18 meters

Recent METARs:
EGBJ 201450Z 03009KT 9999 -RA FEW012 BKN017 BKN028 05/03 Q1007
EGBJ 201520Z 04010KT 9999 -RA FEW012 BKN016 BKN025 05/03 Q1007
EGBJ 201550Z 04009KT 9999 VCSH FEW012 BKN016 BKN025 05/03 Q1006

Airport on the map: